Aérodrome :
LOGIN :

S'inscrire | Disclaimer

   EN    FR    IT 

 










Légende :    VFR   VFR Marginal   IFR   IFR Intensif   IFR Très Intensif
Visi : 
Plafond : 
>= 8 km
>= 3000ft
5 à 8 km
1000 à 3000 ft
1500m à 5 km
500 à 1000 ft
800 à 1500m
200 à 500 ft
< 800m
< 200 ft
Symboles :   Orages  Brouillard  Fortes neiges  Fortes précipitations  Vent > 20 kt
SIGMETs :   Divers  Orages  Givrage  Turbulence  Onde Orograph.  Cendres Volcan.






- Altitude de l'aérodrome : 726 ft
- Code IATA : DIJ


LFSD - Dijon

DERNIER METAR :
  • 202200Z AUTO 34007KT 310V020 CAVOK 23/16 Q1008

METARs EXPIRÉS :
  • 202130Z AUTO 32011KT CAVOK 24/16 Q1008
  • 202100Z AUTO 31012KT CAVOK 25/17 Q1009
  • 202030Z AUTO 34007KT 310V010 9000 NSC 25/18 Q1008
  • 202000Z AUTO 22007KT 190V260 9999 //////CB 27/18 Q1007
  • 201930Z AUTO 19005KT 9999 VCTS ///CB 27/18 Q1007
  • 201900Z AUTO VRB02KT 9999 ///CB 28/18 Q1007
  • 201830Z AUTO 18003KT 8000 NSC 29/18 Q1007
  • 201800Z AUTO 21003KT 170V240 CAVOK 30/18 Q1007

Prévision TAF périmée.



MET'MAP, la Météo Aéronautique d'un coup d'oeil ! - Copyright ORBIFLY Décembre 2007 - Disclaimer

ORBIFLY MET'MAP TEAM :

Programmation & Développement : Alexandra Zaïnal
Sur une idée originale de : Baudouin d'Aumeries
Soutien technique & logistique : Manuel Goepfert
Assistance : Marc-Olivier Méhu




SOURCES & CREDITS :

   NOAA